Time;durP1;ratioP1;P1;durP2;ratioP2;P2;SDS_P1;SDS_P2;PMS_P1;PMS_P2;Temp;Humidity;BMP_temperature;BMP_pressure;BME280_temperature;BME280_humidity;BME280_pressure;Samples;Min_cycle;Max_cycle;Signal;HPM_P1;HPM_P2
2021/04/15 00:01:21;;;;;;;15.57;3.67;;;1.90;99.90;;;;;;5018617;28;20060;-67
2021/04/15 00:03:48;;;;;;;8.82;2.83;;;1.70;99.90;;;;;;5016069;28;20587;-66
2021/04/15 00:06:21;;;;;;;6.78;3.50;;;1.70;99.90;;;;;;5017002;28;20551;-67
2021/04/15 00:08:48;;;;;;;9.45;4.32;;;1.60;99.90;;;;;;5019047;28;20036;-67
2021/04/15 00:11:19;;;;;;;6.63;3.38;;;1.60;99.90;;;;;;5017479;28;20036;-66
2021/04/15 00:13:49;;;;;;;15.35;3.60;;;1.50;99.90;;;;;;5009652;28;20036;-66
2021/04/15 00:16:16;;;;;;;9.98;3.65;;;1.50;99.90;;;;;;5017676;28;20088;-66
2021/04/15 00:18:42;;;;;;;6.13;3.25;;;1.40;99.90;;;;;;5017465;28;20044;-66
2021/04/15 00:21:09;;;;;;;10.40;4.15;;;1.30;99.90;;;;;;5018389;28;20476;-66
2021/04/15 00:23:35;;;;;;;5.53;3.55;;;1.30;99.90;;;;;;5033243;28;20091;-66
2021/04/15 00:26:03;;;;;;;8.35;3.72;;;1.20;99.90;;;;;;5017914;28;20366;-66
2021/04/15 00:28:29;;;;;;;9.68;4.22;;;1.20;99.90;;;;;;5016788;28;20030;-66
2021/04/15 00:30:55;;;;;;;6.63;3.17;;;1.20;99.90;;;;;;5017575;28;20480;-66
2021/04/15 00:33:21;;;;;;;5.72;3.33;;;1.20;99.90;;;;;;5018401;28;20025;-67
2021/04/15 00:35:48;;;;;;;6.50;3.92;;;1.10;99.90;;;;;;5016274;28;20091;-66
2021/04/15 00:38:15;;;;;;;10.18;3.40;;;1.00;99.90;;;;;;5016470;28;20060;-66
2021/04/15 00:40:43;;;;;;;8.75;4.35;;;1.00;99.90;;;;;;5013899;28;20063;-66
2021/04/15 00:43:10;;;;;;;7.72;3.13;;;1.00;99.90;;;;;;5017187;28;20031;-66
2021/04/15 00:45:40;;;;;;;19.35;5.13;;;0.90;99.90;;;;;;5017409;28;20032;-66
2021/04/15 00:48:06;;;;;;;;;;;0.90;99.90;;;;;;5017393;28;20029;-66
2021/04/15 00:50:41;;;;;;;6.70;3.67;;;0.90;99.90;;;;;;5018199;28;20226;-67
2021/04/15 00:53:11;;;;;;;6.50;3.63;;;0.80;99.90;;;;;;5017180;28;20145;-66
2021/04/15 00:55:38;;;;;;;8.27;3.90;;;0.80;99.90;;;;;;5014963;28;20049;-66
2021/04/15 00:58:04;;;;;;;8.98;3.65;;;0.80;99.90;;;;;;5016659;28;20037;-66
2021/04/15 01:00:32;;;;;;;10.13;3.53;;;0.80;99.90;;;;;;5017865;28;20661;-66
2021/04/15 01:03:00;;;;;;;7.90;4.10;;;0.70;99.90;;;;;;5016053;28;20068;-66
2021/04/15 01:05:33;;;;;;;8.52;3.10;;;0.70;99.90;;;;;;5013409;28;20483;-67
2021/04/15 01:07:59;;;;;;;6.15;2.88;;;0.80;99.90;;;;;;5015359;28;20574;-66
2021/04/15 01:10:26;;;;;;;7.05;3.90;;;0.70;99.90;;;;;;5016936;28;20446;-66
2021/04/15 01:13:27;;;;;;;8.07;3.28;;;0.70;99.90;;;;;;5016405;28;20060;-67
2021/04/15 01:16:28;;;;;;;7.47;3.17;;;0.60;99.90;;;;;;5014663;28;20049;-66
2021/04/15 01:19:11;;;;;;;8.88;3.88;;;0.60;99.90;;;;;;5015358;28;20034;-66
2021/04/15 01:21:56;;;;;;;7.90;4.28;;;0.50;99.90;;;;;;5013769;28;20045;-66
2021/04/15 01:24:48;;;;;;;9.27;3.65;;;0.50;99.90;;;;;;5017540;28;20386;-67
2021/04/15 01:27:31;;;;;;;11.30;4.07;;;0.40;99.90;;;;;;5016279;28;20033;-66
2021/04/15 01:30:15;;;;;;;11.63;3.92;;;0.40;99.90;;;;;;5013604;28;20423;-66
2021/04/15 01:33:14;;;;;;;7.95;3.85;;;0.40;99.90;;;;;;5017038;28;20021;-66
2021/04/15 01:35:51;;;;;;;8.65;4.30;;;0.30;99.90;;;;;;5015126;28;21772;-66
2021/04/15 01:38:38;;;;;;;7.75;3.35;;;0.30;99.90;;;;;;5015768;28;20537;-66
2021/04/15 01:41:10;;;;;;;9.35;4.18;;;0.30;99.90;;;;;;5015522;28;20116;-66
2021/04/15 01:43:48;;;;;;;5.95;3.65;;;0.40;99.90;;;;;;5032171;28;20033;-66
2021/04/15 01:46:17;;;;;;;10.07;3.55;;;0.30;99.90;;;;;;5015559;28;20112;-66
2021/04/15 01:48:51;;;;;;;9.38;3.67;;;0.30;99.90;;;;;;5014097;28;20111;-66
2021/04/15 01:51:22;;;;;;;10.38;4.53;;;0.30;99.90;;;;;;4999201;28;20607;-66
2021/04/15 01:53:53;;;;;;;9.77;3.70;;;0.30;99.90;;;;;;4999432;28;20029;-66
2021/04/15 01:56:32;;;;;;;7.40;3.72;;;0.30;99.90;;;;;;5016287;28;20036;-66
2021/04/15 01:59:03;;;;;;;9.25;3.88;;;0.30;99.90;;;;;;5015956;28;20601;-66
2021/04/15 02:01:34;;;;;;;9.95;4.07;;;0.30;99.90;;;;;;5012809;28;20133;-66
2021/04/15 02:04:06;;;;;;;8.85;4.10;;;0.30;99.90;;;;;;5013362;28;20152;-66
2021/04/15 02:06:35;;;;;;;8.85;4.05;;;0.30;99.90;;;;;;5015609;28;21358;-66
2021/04/15 02:09:08;;;;;;;6.18;3.40;;;0.20;99.90;;;;;;5015444;28;20032;-66
2021/04/15 02:11:51;;;;;;;8.05;3.50;;;0.20;99.90;;;;;;5014381;28;20499;-66
2021/04/15 02:14:22;;;;;;;8.73;3.05;;;0.20;99.90;;;;;;5016470;28;20037;-66
2021/04/15 02:16:52;;;;;;;13.57;3.42;;;0.20;99.90;;;;;;5015561;28;20371;-66
2021/04/15 02:19:27;;;;;;;9.00;3.40;;;0.20;99.90;;;;;;5016312;28;20076;-67
2021/04/15 02:21:59;;;;;;;9.00;3.30;;;0.10;99.90;;;;;;5014628;28;20057;-66
2021/04/15 02:24:25;;;;;;;6.78;2.97;;;0.10;99.90;;;;;;5014351;28;20095;-66
2021/04/15 02:26:56;;;;;;;7.13;2.75;;;0.00;99.90;;;;;;5016112;28;20042;-66
2021/04/15 02:29:26;;;;;;;5.75;3.20;;;0.00;99.90;;;;;;5016302;28;20017;-65
2021/04/15 02:31:56;;;;;;;5.80;2.80;;;0.00;99.90;;;;;;5014815;28;20029;-66
2021/04/15 02:34:47;;;;;;;9.80;3.13;;;-0.10;99.90;;;;;;5015105;28;20078;-66
2021/04/15 02:37:21;;;;;;;8.55;3.30;;;-0.10;99.90;;;;;;5009148;28;20472;-66
2021/04/15 02:39:54;;;;;;;7.93;3.45;;;-0.10;99.90;;;;;;5015747;28;20563;-66
2021/04/15 02:42:27;;;;;;;5.95;3.25;;;-0.20;99.90;;;;;;5012886;28;20112;-66
2021/04/15 02:45:04;;;;;;;7.40;3.00;;;-0.20;99.90;;;;;;5016094;28;20037;-66
2021/04/15 02:47:36;;;;;;;8.00;2.97;;;-0.30;99.90;;;;;;5015617;28;20029;-66
2021/04/15 02:50:07;;;;;;;8.07;3.10;;;-0.30;99.90;;;;;;5014478;28;20152;-66
2021/04/15 02:52:39;;;;;;;5.53;3.00;;;-0.30;99.90;;;;;;5015887;28;20563;-66
2021/04/15 02:55:10;;;;;;;6.35;3.15;;;-0.30;99.90;;;;;;5014458;28;20041;-66
2021/04/15 02:57:42;;;;;;;7.57;3.50;;;-0.30;99.90;;;;;;5015613;28;20398;-66
2021/04/15 03:00:12;;;;;;;5.68;3.53;;;-0.40;99.90;;;;;;5014279;28;20514;-66
2021/04/15 03:02:45;;;;;;;5.70;3.08;;;-0.40;99.90;;;;;;5015623;28;20516;-66
2021/04/15 03:05:17;;;;;;;6.75;3.15;;;-0.40;99.90;;;;;;5015551;28;20156;-66
2021/04/15 03:07:44;;;;;;;6.80;2.85;;;-0.40;99.90;;;;;;5013791;28;20041;-66
2021/04/15 03:10:14;;;;;;;9.70;3.65;;;-0.30;99.90;;;;;;5012819;28;20807;-66
2021/04/15 03:12:48;;;;;;;5.45;3.15;;;-0.40;99.90;;;;;;5013125;28;20040;-66
2021/04/15 03:15:25;;;;;;;5.10;2.72;;;-0.50;99.90;;;;;;5012143;28;20038;-66
2021/04/15 03:17:57;;;;;;;7.60;2.70;;;-0.50;99.90;;;;;;5016627;28;20756;-67
2021/04/15 03:20:44;;;;;;;7.57;3.67;;;-0.60;99.90;;;;;;5013226;28;20053;-65
2021/04/15 03:23:35;;;;;;;5.78;2.92;;;-0.50;99.90;;;;;;5015706;28;20128;-66
2021/04/15 03:26:09;;;;;;;7.15;3.40;;;-0.50;99.90;;;;;;5014707;28;20072;-66
2021/04/15 03:29:09;;;;;;;4.85;2.75;;;-0.50;99.90;;;;;;5007191;28;20515;-66
2021/04/15 03:31:42;;;;;;;9.82;3.22;;;-0.50;99.90;;;;;;5008913;28;20038;-67
2021/04/15 03:34:23;;;;;;;5.57;2.92;;;-0.50;99.90;;;;;;5019021;28;20033;-66
2021/04/15 03:36:52;;;;;;;6.32;2.95;;;-0.50;99.90;;;;;;5017364;28;20579;-67
2021/04/15 03:39:30;;;;;;;6.93;3.20;;;-0.60;99.90;;;;;;5013600;28;20485;-67
2021/04/15 03:42:00;;;;;;;6.60;3.35;;;-0.50;99.90;;;;;;5015219;28;20116;-66
2021/04/15 03:44:50;;;;;;;5.95;2.80;;;-0.60;99.90;;;;;;5017005;28;20026;-66
2021/04/15 03:47:21;;;;;;;10.88;3.38;;;-0.60;99.90;;;;;;5018420;28;20487;-67
2021/04/15 03:49:57;;;;;;;6.38;2.90;;;-0.70;99.90;;;;;;5017178;28;20032;-66
2021/04/15 03:52:36;;;;;;;5.60;2.78;;;-0.60;99.90;;;;;;5016913;28;20029;-66
2021/04/15 03:55:18;;;;;;;7.18;3.20;;;-0.70;99.90;;;;;;5016014;28;20505;-66
2021/04/15 03:57:45;;;;;;;10.45;2.80;;;-0.70;99.90;;;;;;5018559;28;20656;-66
2021/04/15 04:00:23;;;;;;;6.60;2.92;;;-0.60;99.90;;;;;;5014639;28;20108;-65
2021/04/15 04:03:28;;;;;;;7.13;3.00;;;-0.50;99.90;;;;;;5018518;28;20442;-66
2021/04/15 04:05:59;;;;;;;8.90;3.63;;;-0.70;99.90;;;;;;5020375;28;20388;-67
2021/04/15 04:08:41;;;;;;;7.10;3.20;;;-0.70;99.90;;;;;;5024625;28;20029;-66
2021/04/15 04:11:10;;;;;;;7.43;3.30;;;-0.70;99.90;;;;;;5019376;28;20042;-66
2021/04/15 04:13:40;;;;;;;7.90;3.17;;;-0.70;99.90;;;;;;5014617;28;20025;-66
2021/04/15 04:16:27;;;;;;;9.52;3.10;;;-0.80;99.90;;;;;;5016888;28;20049;-66
2021/04/15 04:19:10;;;;;;;6.85;3.33;;;-0.80;99.90;;;;;;4999153;28;20112;-66
2021/04/15 04:21:59;;;;;;;6.00;3.08;;;-0.90;99.90;;;;;;5017075;28;20050;-66
2021/04/15 04:24:38;;;;;;;8.13;3.45;;;-1.00;99.90;;;;;;5014145;28;20433;-66
2021/04/15 04:27:17;;;;;;;7.65;3.03;;;-1.00;99.90;;;;;;5017981;28;20452;-66
2021/04/15 04:29:54;;;;;;;7.82;3.63;;;-1.10;99.90;;;;;;5018587;28;20041;-66
2021/04/15 04:32:22;;;;;;;7.72;3.92;;;-1.10;99.90;;;;;;5017501;28;20026;-66
2021/04/15 04:34:55;;;;;;;7.05;2.97;;;-1.10;99.90;;;;;;5018682;28;20033;-66
2021/04/15 04:37:33;;;;;;;8.90;3.88;;;-1.10;99.90;;;;;;5017848;28;20520;-66
2021/04/15 04:40:01;;;;;;;8.95;4.07;;;-1.10;99.90;;;;;;5018380;28;20022;-66
2021/04/15 04:42:44;;;;;;;9.70;3.72;;;-1.00;99.90;;;;;;5015990;28;20592;-66
2021/04/15 04:45:11;;;;;;;6.88;3.17;;;-1.00;99.90;;;;;;5018389;28;20025;-65
2021/04/15 04:47:57;;;;;;;6.00;3.40;;;-1.00;99.90;;;;;;5017831;28;20099;-66
2021/04/15 04:50:23;;;;;;;8.40;3.30;;;-1.00;99.90;;;;;;5017447;28;20029;-67
2021/04/15 04:52:56;;;;;;;8.48;3.58;;;-1.00;99.90;;;;;;5016488;28;20020;-66
2021/04/15 04:55:29;;;;;;;8.77;3.20;;;-0.90;99.90;;;;;;5014514;28;20502;-66
2021/04/15 04:57:55;;;;;;;7.47;3.90;;;-0.90;99.90;;;;;;5015831;28;20033;-67
2021/04/15 05:00:23;;;;;;;6.35;3.30;;;-0.90;99.90;;;;;;5015176;28;20052;-66
2021/04/15 05:02:56;;;;;;;7.20;3.47;;;-0.80;99.90;;;;;;5012898;28;20132;-66
2021/04/15 05:05:28;;;;;;;5.65;3.22;;;-0.70;99.90;;;;;;5012225;28;20033;-67
2021/04/15 05:08:24;;;;;;;5.70;3.03;;;-0.70;99.90;;;;;;5018575;28;20040;-67
2021/04/15 05:10:52;;;;;;;5.88;3.10;;;-0.50;99.90;;;;;;5015902;28;20143;-67
2021/04/15 05:13:28;;;;;;;8.05;3.65;;;-0.50;99.90;;;;;;5016945;28;20112;-66
2021/04/15 05:15:55;;;;;;;6.80;3.42;;;-0.30;99.90;;;;;;5013895;28;20022;-67
2021/04/15 05:18:22;;;;;;;9.48;4.10;;;-0.30;99.90;;;;;;5015260;28;20048;-67
2021/04/15 05:20:54;;;;;;;8.23;3.33;;;-0.30;99.90;;;;;;5016275;28;20483;-67
2021/04/15 05:23:39;;;;;;;7.93;3.78;;;-0.20;99.90;;;;;;5016914;28;20493;-67
2021/04/15 05:26:18;;;;;;;8.57;3.97;;;-0.10;99.90;;;;;;5017098;28;20148;-66
2021/04/15 05:28:47;;;;;;;8.75;3.97;;;0.00;99.90;;;;;;5017257;28;20029;-67
2021/04/15 05:31:17;;;;;;;8.63;4.03;;;0.10;99.90;;;;;;5017145;28;20427;-67
2021/04/15 05:33:44;;;;;;;27.48;7.53;;;0.20;99.90;;;;;;5017761;28;20025;-67
2021/04/15 05:36:12;;;;;;;25.88;11.02;;;0.30;99.90;;;;;;5017897;28;20090;-67
2021/04/15 05:38:45;;;;;;;23.20;8.43;;;0.40;99.90;;;;;;5017582;28;20409;-67
2021/04/15 05:41:31;;;;;;;18.65;7.82;;;0.50;99.90;;;;;;5015748;28;20037;-67
2021/04/15 05:44:02;;;;;;;12.57;5.50;;;0.70;99.90;;;;;;5016174;28;20790;-67
2021/04/15 05:46:39;;;;;;;17.30;6.20;;;0.90;99.90;;;;;;5018029;28;20100;-67
2021/04/15 05:49:05;;;;;;;26.27;10.82;;;1.10;99.90;;;;;;5016370;28;20025;-67
2021/04/15 05:51:45;;;;;;;28.75;9.90;;;1.30;99.90;;;;;;5017041;28;20033;-67
2021/04/15 05:54:15;;;;;;;23.20;9.48;;;1.60;99.90;;;;;;5013224;28;20500;-67
2021/04/15 05:56:58;;;;;;;21.83;9.45;;;1.80;99.90;;;;;;5016384;28;20471;-67
2021/04/15 05:59:49;;;;;;;26.27;9.75;;;2.00;99.90;;;;;;5015182;28;20068;-67
2021/04/15 06:02:37;;;;;;;12.48;6.32;;;2.20;99.90;;;;;;5015080;28;20085;-67
2021/04/15 06:05:23;;;;;;;11.85;5.38;;;2.40;99.90;;;;;;5017139;28;20120;-66
2021/04/15 06:07:53;;;;;;;12.23;5.20;;;2.70;99.90;;;;;;5017246;28;20029;-67
2021/04/15 06:10:28;;;;;;;9.73;4.68;;;2.90;99.90;;;;;;5017060;28;20035;-67
2021/04/15 06:13:17;;;;;;;9.38;5.30;;;3.20;99.90;;;;;;5015960;28;20033;-67
2021/04/15 06:15:56;;;;;;;11.43;4.72;;;3.50;99.90;;;;;;5017405;28;20605;-67
2021/04/15 06:18:34;;;;;;;8.65;4.53;;;3.70;99.90;;;;;;5009959;28;20483;-67
2021/04/15 06:21:07;;;;;;;9.52;4.75;;;3.90;99.90;;;;;;5017247;28;20053;-67
2021/04/15 06:23:39;;;;;;;16.77;4.57;;;4.00;99.90;;;;;;5015791;28;20443;-67
2021/04/15 06:26:08;;;;;;;10.70;6.50;;;4.20;99.90;;;;;;5017429;28;20717;-67
2021/04/15 06:28:42;;;;;;;11.80;5.60;;;4.40;99.90;;;;;;5014978;28;20412;-67
2021/04/15 06:31:15;;;;;;;11.13;5.25;;;4.60;99.90;;;;;;5015602;28;20040;-67
2021/04/15 06:33:42;;;;;;;10.75;5.25;;;4.70;99.90;;;;;;5015942;28;20129;-67
2021/04/15 06:36:29;;;;;;;12.27;5.65;;;5.00;99.90;;;;;;5015160;28;20030;-67
2021/04/15 06:39:13;;;;;;;12.70;5.65;;;5.10;99.90;;;;;;5016147;28;20036;-67
2021/04/15 06:42:16;;;;;;;10.20;5.95;;;5.40;99.90;;;;;;5017381;28;20095;-67
2021/04/15 06:44:57;;;;;;;12.13;5.57;;;5.90;99.90;;;;;;5012548;28;20136;-67
2021/04/15 06:47:42;;;;;;;10.27;5.80;;;6.30;99.90;;;;;;5016818;28;20037;-67
2021/04/15 06:50:26;;;;;;;12.93;6.47;;;6.60;99.90;;;;;;5006948;28;20013;-67
2021/04/15 06:53:24;;;;;;;12.05;5.97;;;7.00;99.90;;;;;;5014235;28;20422;-67
2021/04/15 06:56:23;;;;;;;15.20;6.60;;;7.30;99.90;;;;;;5015651;28;20045;-67
2021/04/15 06:59:14;;;;;;;11.43;5.78;;;7.80;99.90;;;;;;5016586;28;20370;-67
2021/04/15 07:01:58;;;;;;;7.95;5.05;;;8.10;99.90;;;;;;5016312;28;20037;-68
2021/04/15 07:04:40;;;;;;;9.18;4.68;;;8.40;99.90;;;;;;5016657;28;20164;-68
2021/04/15 07:07:09;;;;;;;6.55;3.65;;;8.70;99.90;;;;;;5021149;28;20075;-68
2021/04/15 07:09:48;;;;;;;7.97;4.50;;;8.80;99.90;;;;;;5019197;28;20025;-68
2021/04/15 07:12:52;;;;;;;6.60;3.53;;;9.00;99.90;;;;;;5020369;28;20071;-67
2021/04/15 07:15:36;;;;;;;9.20;3.80;;;9.40;99.90;;;;;;5020191;28;20043;-68
2021/04/15 07:18:26;;;;;;;7.50;3.30;;;9.70;99.90;;;;;;5017885;28;20034;-68
2021/04/15 07:21:08;;;;;;;9.57;3.47;;;9.80;99.90;;;;;;5019588;28;20077;-68
2021/04/15 07:23:58;;;;;;;6.55;3.00;;;10.20;99.90;;;;;;5019775;28;20143;-68
2021/04/15 07:26:42;;;;;;;5.55;3.25;;;10.40;99.90;;;;;;5019460;28;20366;-68
2021/04/15 07:29:32;;;;;;;5.75;2.92;;;10.70;99.90;;;;;;5018163;28;20029;-69
2021/04/15 07:32:19;;;;;;;10.38;4.18;;;11.00;99.90;;;;;;5020084;28;20025;-69
2021/04/15 07:35:22;;;;;;;4.85;2.85;;;11.00;99.90;;;;;;5019486;28;20059;-69
2021/04/15 07:38:08;;;;;;;6.07;3.28;;;11.20;99.90;;;;;;5018220;28;20052;-69
2021/04/15 07:40:48;;;;;;;6.82;3.67;;;11.50;99.90;;;;;;5019667;28;20038;-69
2021/04/15 07:43:19;;;;;;;11.30;3.60;;;11.90;99.90;;;;;;5017339;28;20604;-69
2021/04/15 07:46:09;;;;;;;6.00;3.58;;;12.10;99.90;;;;;;5020155;28;20562;-69
2021/04/15 07:48:38;;;;;;;5.75;2.78;;;12.30;99.90;;;;;;5019198;28;20125;-69
2021/04/15 07:51:38;;;;;;;6.10;2.63;;;12.60;99.90;;;;;;5019212;28;20034;-69
2021/04/15 07:54:35;;;;;;;6.45;2.50;;;13.00;99.20;;;;;;5018175;28;20421;-69
2021/04/15 07:57:29;;;;;;;3.95;1.83;;;13.40;97.80;;;;;;5018899;28;20033;-67
2021/04/15 08:00:25;;;;;;;6.13;1.75;;;13.60;97.80;;;;;;5017784;28;20048;-69
2021/04/15 08:03:29;;;;;;;5.55;1.63;;;13.80;95.50;;;;;;5017770;28;20053;-69
2021/04/15 08:06:44;;;;;;;1.75;1.40;;;13.80;97.50;;;;;;5019141;28;20072;-67
2021/04/15 08:09:13;;;;;;;4.22;1.67;;;14.00;95.50;;;;;;5016253;28;20068;-68
2021/04/15 08:11:38;;;;;;;2.03;1.33;;;14.20;93.50;;;;;;5016749;28;20086;-68
2021/04/15 08:14:32;;;;;;;2.63;1.27;;;14.30;92.30;;;;;;5015975;28;20029;-68
2021/04/15 08:17:19;;;;;;;2.03;1.38;;;14.50;90.60;;;;;;5016902;28;20370;-68
2021/04/15 08:20:11;;;;;;;1.73;1.17;;;14.70;88.70;;;;;;5014075;28;20032;-68
2021/04/15 08:23:05;;;;;;;2.85;1.23;;;14.90;87.50;;;;;;5018376;28;20472;-68
2021/04/15 08:26:00;;;;;;;3.17;1.02;;;15.10;90.60;;;;;;5018046;28;20792;-68
2021/04/15 08:28:45;;;;;;;1.58;1.10;;;15.20;83.90;;;;;;5017169;28;20426;-68
2021/04/15 08:31:16;;;;;;;1.77;1.02;;;15.10;79.10;;;;;;5019805;28;20029;-68
2021/04/15 08:34:07;;;;;;;6.60;1.90;;;14.70;79.00;;;;;;5018488;28;20112;-69
2021/04/15 08:36:55;;;;;;;4.75;1.27;;;14.70;81.90;;;;;;5017680;28;20033;-68
2021/04/15 08:39:44;;;;;;;3.28;1.60;;;15.10;88.00;;;;;;5016672;28;20068;-68
2021/04/15 08:42:15;;;;;;;1.90;1.35;;;15.10;76.20;;;;;;5018195;28;20087;-68
2021/04/15 08:45:12;;;;;;;1.80;1.13;;;15.30;82.20;;;;;;5017732;28;20032;-69
2021/04/15 08:47:50;;;;;;;6.82;1.40;;;15.60;83.30;;;;;;5014769;28;20135;-69
2021/04/15 08:50:54;;;;;;;2.97;1.55;;;15.50;73.60;;;;;;5018652;28;20183;-69
2021/04/15 08:53:34;;;;;;;10.15;2.45;;;15.50;77.40;;;;;;5018346;28;20028;-69
2021/04/15 08:56:04;;;;;;;;;;;15.60;84.10;;;;;;5016918;28;20036;-69
2021/04/15 08:59:14;;;;;;;2.08;1.25;;;15.80;72.50;;;;;;5017268;28;19909;-69
2021/04/15 09:01:43;;;;;;;4.82;1.23;;;15.70;80.00;;;;;;5017556;28;20302;-69
2021/04/15 09:04:32;;;;;;;2.95;1.48;;;16.20;72.00;;;;;;5018261;28;20369;-69
2021/04/15 09:07:26;;;;;;;4.20;1.23;;;16.50;70.60;;;;;;5018740;28;20278;-69
2021/04/15 09:10:21;;;;;;;2.92;1.60;;;16.50;69.10;;;;;;5016256;28;20431;-69
2021/04/15 09:13:05;;;;;;;2.30;1.10;;;16.00;72.30;;;;;;5016666;28;20029;-69
2021/04/15 09:15:50;;;;;;;3.05;1.20;;;16.30;77.80;;;;;;5017731;28;20095;-68
2021/04/15 09:18:21;;;;;;;5.40;1.35;;;16.70;64.60;;;;;;5018710;28;20043;-69
2021/04/15 09:21:21;;;;;;;3.65;0.93;;;16.90;64.60;;;;;;5015769;28;20072;-68
2021/04/15 09:24:02;;;;;;;1.70;1.00;;;16.60;61.70;;;;;;5016862;28;20115;-69
2021/04/15 09:26:53;;;;;;;4.28;1.20;;;16.40;67.80;;;;;;5017139;28;20037;-69
2021/04/15 09:29:43;;;;;;;6.15;1.30;;;16.20;68.30;;;;;;5017755;28;20025;-69
2021/04/15 09:32:17;;;;;;;1.27;0.85;;;16.30;66.20;;;;;;5016782;28;20139;-69
2021/04/15 09:35:15;;;;;;;3.83;1.38;;;16.30;63.60;;;;;;5017837;28;20128;-69
2021/04/15 09:37:59;;;;;;;1.20;0.93;;;16.70;71.70;;;;;;5016539;28;20115;-69
2021/04/15 09:40:40;;;;;;;4.45;1.63;;;16.90;69.90;;;;;;5017494;28;20029;-69
2021/04/15 09:43:44;;;;;;;3.97;1.30;;;16.90;66.10;;;;;;5015524;28;20040;-69
2021/04/15 09:46:35;;;;;;;3.35;1.10;;;17.20;63.20;;;;;;5016147;28;20802;-69
2021/04/15 09:49:20;;;;;;;2.05;1.05;;;16.70;63.00;;;;;;5017699;28;20034;-69
2021/04/15 09:52:17;;;;;;;1.98;0.80;;;16.50;65.20;;;;;;5017423;28;20036;-69
2021/04/15 09:55:11;;;;;;;2.90;1.17;;;16.00;64.70;;;;;;5016884;28;20759;-69
2021/04/15 09:58:03;;;;;;;1.25;1.05;;;15.80;65.70;;;;;;5017276;28;20053;-69
2021/04/15 10:00:39;;;;;;;1.80;1.20;;;15.80;67.70;;;;;;5013297;28;20787;-69
2021/04/15 10:03:26;;;;;;;3.17;1.05;;;15.90;67.30;;;;;;5016114;28;20489;-69
2021/04/15 10:06:17;;;;;;;2.53;1.15;;;15.90;68.80;;;;;;5015990;28;20033;-69
2021/04/15 10:08:55;;;;;;;1.58;1.02;;;15.90;67.00;;;;;;5017587;28;20025;-69
2021/04/15 10:11:42;;;;;;;2.42;1.00;;;16.10;63.50;;;;;;5017000;28;20056;-69
2021/04/15 10:14:32;;;;;;;3.03;1.02;;;16.40;64.40;;;;;;5015756;28;20025;-69
2021/04/15 10:17:21;;;;;;;1.27;0.95;;;16.30;63.50;;;;;;5016106;28;20045;-69
2021/04/15 10:20:05;;;;;;;1.60;1.08;;;15.80;64.90;;;;;;5016984;28;20515;-68
2021/04/15 10:22:50;;;;;;;3.85;1.10;;;15.90;67.10;;;;;;5016222;28;20041;-69
2021/04/15 10:25:23;;;;;;;2.60;1.20;;;16.40;68.60;;;;;;5015606;28;20120;-69
2021/04/15 10:28:08;;;;;;;1.67;1.13;;;16.50;66.30;;;;;;5017500;28;20029;-69
2021/04/15 10:31:12;;;;;;;4.80;1.05;;;16.50;68.10;;;;;;5015254;28;20037;-69
2021/04/15 10:34:05;;;;;;;3.63;1.00;;;16.90;62.20;;;;;;5013739;28;20033;-69
2021/04/15 10:36:54;;;;;;;1.30;0.80;;;17.30;66.30;;;;;;5017302;28;20034;-69
2021/04/15 10:39:39;;;;;;;2.83;1.05;;;17.60;63.10;;;;;;5019010;28;20920;-69
2021/04/15 10:42:43;;;;;;;1.83;1.00;;;17.00;59.90;;;;;;5020070;28;20048;-69
2021/04/15 10:46:03;;;;;;;1.48;0.90;;;15.60;61.70;;;;;;5019794;28;20387;-68
2021/04/15 10:48:47;;;;;;;3.22;1.00;;;15.50;65.00;;;;;;4994427;28;20085;-69
2021/04/15 10:51:33;;;;;;;1.58;0.70;;;15.90;61.20;;;;;;5016262;28;20041;-69
2021/04/15 10:54:20;;;;;;;2.10;1.10;;;16.00;64.20;;;;;;5019249;28;20040;-70
2021/04/15 10:56:50;;;;;;;1.70;1.00;;;15.90;62.20;;;;;;5020881;28;20028;-70
2021/04/15 10:59:27;;;;;;;3.22;1.00;;;15.70;62.60;;;;;;5018127;28;20488;-70
2021/04/15 11:02:22;;;;;;;2.65;1.00;;;15.50;67.60;;;;;;5019991;28;20103;-70
2021/04/15 11:04:49;;;;;;;1.65;1.10;;;16.00;70.60;;;;;;5020628;28;20404;-70
2021/04/15 11:07:14;;;;;;;2.45;1.08;;;16.80;69.80;;;;;;5019051;28;20057;-70
2021/04/15 11:09:47;;;;;;;2.13;1.00;;;17.20;66.40;;;;;;5018635;28;20663;-70
2021/04/15 11:12:13;;;;;;;1.75;1.00;;;17.30;62.40;;;;;;5020359;28;20404;-70
2021/04/15 11:14:45;;;;;;;3.78;0.77;;;16.50;61.70;;;;;;5019819;28;20029;-69
2021/04/15 11:17:28;;;;;;;2.65;0.98;;;15.90;60.00;;;;;;5020337;28;20454;-69
2021/04/15 11:20:19;;;;;;;2.72;1.02;;;14.90;62.10;;;;;;5020309;28;20346;-69
2021/04/15 11:22:59;;;;;;;2.03;1.00;;;14.40;65.50;;;;;;5019142;28;20064;-70
2021/04/15 11:25:27;;;;;;;;;;;13.90;66.60;;;;;;5017674;28;20865;-69
2021/04/15 11:27:55;;;;;;;1.30;0.88;;;13.70;70.70;;;;;;5018692;28;19954;-69
2021/04/15 11:30:46;;;;;;;1.73;0.95;;;14.50;70.20;;;;;;5019544;28;20017;-69
2021/04/15 11:33:34;;;;;;;2.30;0.77;;;15.60;74.70;;;;;;5019848;28;20022;-69
2021/04/15 11:36:28;;;;;;;2.00;0.93;;;16.20;73.70;;;;;;5018994;28;20018;-70
2021/04/15 11:39:23;;;;;;;2.50;1.17;;;16.30;66.90;;;;;;5019988;28;20095;-69
2021/04/15 11:41:55;;;;;;;1.13;0.77;;;16.30;65.90;;;;;;5012629;28;20465;-69
2021/04/15 11:44:35;;;;;;;1.10;0.77;;;15.40;62.40;;;;;;5018850;28;20055;-69
2021/04/15 11:47:27;;;;;;;3.05;0.70;;;14.70;59.30;;;;;;5019015;28;20039;-69
2021/04/15 11:50:09;;;;;;;1.30;0.60;;;14.50;65.40;;;;;;5019823;28;20663;-69
2021/04/15 11:52:39;;;;;;;1.15;0.77;;;14.50;62.30;;;;;;5018047;28;20030;-69
2021/04/15 11:55:23;;;;;;;2.38;1.15;;;14.40;65.30;;;;;;5018674;28;20030;-69
2021/04/15 11:57:54;;;;;;;1.00;0.90;;;14.30;67.40;;;;;;5013614;28;20500;-69
2021/04/15 12:00:41;;;;;;;2.35;1.10;;;14.30;66.50;;;;;;5017551;28;20107;-69
2021/04/15 12:03:21;;;;;;;3.28;1.52;;;14.10;68.10;;;;;;5016353;28;20042;-69
2021/04/15 12:05:49;;;;;;;3.63;1.42;;;13.80;70.10;;;;;;5018522;28;20039;-69
2021/04/15 12:08:25;;;;;;;2.95;1.05;;;13.90;72.50;;;;;;5017739;28;20480;-69
2021/04/15 12:11:00;;;;;;;1.48;1.02;;;13.80;63.80;;;;;;5017947;28;20074;-69
2021/04/15 12:13:54;;;;;;;2.15;0.90;;;13.70;70.20;;;;;;5018524;28;20116;-69
2021/04/15 12:16:24;;;;;;;1.63;0.90;;;13.50;67.40;;;;;;5018677;28;20033;-69
2021/04/15 12:18:56;;;;;;;;;;;13.20;68.60;;;;;;5018528;28;20491;-69
2021/04/15 12:21:30;;;;;;;1.17;0.77;;;13.10;68.40;;;;;;5018906;28;19987;-69
2021/04/15 12:24:04;;;;;;;1.10;0.85;;;12.80;66.60;;;;;;5019022;28;20463;-69
2021/04/15 12:26:59;;;;;;;1.60;1.00;;;12.80;68.90;;;;;;5019161;28;20025;-69
2021/04/15 12:29:46;;;;;;;1.35;0.98;;;12.60;67.90;;;;;;5016669;28;20033;-69
2021/04/15 12:32:27;;;;;;;3.53;1.25;;;12.70;69.50;;;;;;5017959;28;20034;-69
2021/04/15 12:35:10;;;;;;;1.60;1.00;;;13.20;80.30;;;;;;5019116;28;20025;-69
2021/04/15 12:37:58;;;;;;;5.07;0.88;;;14.00;75.30;;;;;;5018772;28;20488;-69
2021/04/15 12:40:33;;;;;;;1.60;0.82;;;14.50;67.70;;;;;;5017462;28;20212;-69
2021/04/15 12:43:08;;;;;;;2.78;1.67;;;14.60;64.00;;;;;;5018154;28;20087;-70
2021/04/15 12:46:06;;;;;;;3.33;1.13;;;14.20;61.90;;;;;;5018573;28;20470;-70
2021/04/15 12:49:03;;;;;;;1.08;0.90;;;13.90;64.30;;;;;;5013076;28;20378;-69
2021/04/15 12:51:31;;;;;;;1.35;0.98;;;13.80;64.50;;;;;;5018254;28;20029;-68
2021/04/15 12:54:01;;;;;;;5.30;1.30;;;13.60;66.40;;;;;;5018746;28;20033;-69
2021/04/15 12:56:39;;;;;;;2.97;1.10;;;13.40;64.80;;;;;;5017765;28;20416;-69
2021/04/15 12:59:05;;;;;;;1.20;0.90;;;13.80;68.00;;;;;;5017392;28;20030;-69
2021/04/15 13:01:35;;;;;;;2.15;0.88;;;14.20;64.70;;;;;;5016552;28;20036;-69
2021/04/15 13:04:18;;;;;;;;;;;14.10;65.70;;;;;;5017855;28;20525;-69
2021/04/15 13:07:16;;;;;;;1.10;0.60;;;13.80;64.60;;;;;;5016791;28;20016;-69
2021/04/15 13:09:45;;;;;;;1.00;0.70;;;13.60;63.20;;;;;;5020651;28;20040;-69
2021/04/15 13:12:33;;;;;;;2.30;0.60;;;13.50;64.10;;;;;;5017206;28;20052;-69
2021/04/15 13:15:04;;;;;;;2.58;0.70;;;13.30;65.70;;;;;;5018337;28;20404;-69
2021/04/15 13:17:36;;;;;;;0.68;0.50;;;13.20;65.10;;;;;;5016136;28;20030;-69
2021/04/15 13:20:35;;;;;;;0.77;0.75;;;12.90;65.30;;;;;;5017497;28;20042;-69
2021/04/15 13:23:07;;;;;;;1.77;0.70;;;12.80;66.10;;;;;;5014999;28;20495;-69
2021/04/15 13:25:35;;;;;;;1.20;0.80;;;12.70;67.10;;;;;;5017165;28;20047;-69
2021/04/15 13:28:09;;;;;;;3.17;0.70;;;12.70;65.80;;;;;;5017834;28;20243;-69
2021/04/15 13:30:54;;;;;;;1.33;0.60;;;12.60;67.40;;;;;;5017293;28;20025;-69
2021/04/15 13:33:31;;;;;;;2.72;0.73;;;12.60;62.80;;;;;;5017691;28;20420;-69
2021/04/15 13:36:01;;;;;;;1.85;0.70;;;12.70;67.30;;;;;;5016244;28;20040;-69
2021/04/15 13:38:29;;;;;;;2.08;1.20;;;12.80;69.40;;;;;;5017600;28;20167;-69
2021/04/15 13:41:10;;;;;;;0.80;0.60;;;13.10;68.20;;;;;;5017090;28;20040;-70
2021/04/15 13:43:46;;;;;;;6.18;1.23;;;13.70;66.20;;;;;;5017936;28;20148;-69
2021/04/15 13:46:21;;;;;;;2.67;0.70;;;14.20;64.60;;;;;;5016923;28;20159;-69
2021/04/15 13:49:00;;;;;;;3.92;1.20;;;14.20;59.70;;;;;;5016464;28;20462;-69
2021/04/15 13:51:28;;;;;;;0.60;0.60;;;14.50;63.40;;;;;;5018038;28;20064;-69
2021/04/15 13:54:13;;;;;;;0.65;0.57;;;14.20;62.50;;;;;;5008396;28;20033;-70